Time;durP1;ratioP1;P1;durP2;ratioP2;P2;SDS_P1;SDS_P2;PMS_P1;PMS_P2;Temp;Humidity;BMP_temperature;BMP_pressure;BME280_temperature;BME280_humidity;BME280_pressure;Samples;Min_cycle;Max_cycle;Signal;HPM_P1;HPM_P2
2022/06/13 00:01:39;;;;;;;3.10;1.03;;;25.30;54.60;;;-142.21;67.96;112049.66;5059224;28;20826;-72
2022/06/13 00:04:08;;;;;;;2.70;1.70;;;25.40;53.60;;;-142.21;68.91;112049.66;5061992;28;20653;-73
2022/06/13 00:06:36;;;;;;;2.67;1.60;;;25.40;53.90;;;-142.21;66.78;112049.66;5069235;28;20620;-73
2022/06/13 00:09:05;;;;;;;2.53;1.60;;;25.40;53.40;;;-142.21;65.75;112049.66;5074065;28;20231;-72
2022/06/13 00:11:34;;;;;;;2.83;1.43;;;25.40;53.10;;;-142.21;64.92;112049.66;5060859;28;20197;-73
2022/06/13 00:14:03;;;;;;;2.40;1.57;;;25.30;52.70;;;-142.21;66.79;112049.66;5073188;28;20193;-72
2022/06/13 00:16:30;;;;;;;3.07;1.57;;;25.30;53.10;;;-142.21;68.81;112049.66;5071336;28;20264;-73
2022/06/13 00:18:58;;;;;;;2.53;1.57;;;25.20;53.40;;;-142.21;71.35;112049.66;5054475;28;20204;-72
2022/06/13 00:21:29;;;;;;;3.37;1.60;;;25.10;54.10;;;-142.21;69.54;112049.66;5062644;28;20209;-72
2022/06/13 00:23:56;;;;;;;5.23;2.10;;;25.10;53.80;;;-142.21;66.56;112049.66;5053504;28;20308;-72
2022/06/13 00:26:27;;;;;;;3.43;1.50;;;25.00;53.00;;;-142.21;66.59;112049.66;5053709;28;20535;-72
2022/06/13 00:28:56;;;;;;;1.80;1.60;;;25.00;52.90;;;-142.21;67.21;112049.66;5067934;28;20226;-72
2022/06/13 00:31:24;;;;;;;2.83;1.70;;;24.90;53.10;;;-142.21;65.75;112049.66;5063556;28;20198;-73
2022/06/13 00:33:52;;;;;;;2.43;1.43;;;24.90;52.90;;;-142.21;62.90;112049.66;5060067;28;20630;-72
2022/06/13 00:36:21;;;;;;;3.40;1.70;;;24.80;52.20;;;-142.21;62.04;112049.66;5060070;28;20270;-73
2022/06/13 00:38:49;;;;;;;7.77;1.40;;;24.80;52.00;;;-142.21;59.10;112049.66;5056475;28;20197;-72
2022/06/13 00:41:25;;;;;;;2.00;1.30;;;24.70;51.20;;;-142.21;56.91;112049.66;5058131;28;20529;-72
2022/06/13 00:43:53;;;;;;;5.33;1.67;;;24.70;51.40;;;-142.21;59.01;112049.66;5054190;28;20185;-72
2022/06/13 00:46:25;;;;;;;3.27;1.57;;;24.70;50.90;;;-142.21;59.97;112049.66;5054158;28;20201;-73
2022/06/13 00:48:59;;;;;;;3.00;1.40;;;24.70;51.40;;;-142.21;61.76;112049.66;5073064;28;20189;-73
2022/06/13 00:51:26;;;;;;;5.60;1.77;;;24.70;51.70;;;-142.21;60.93;112049.66;5056779;28;20285;-72
2022/06/13 00:53:54;;;;;;;2.60;1.60;;;24.70;51.50;;;-142.21;67.11;112049.66;5072720;28;20201;-72
2022/06/13 00:56:26;;;;;;;2.30;1.60;;;24.60;52.70;;;-142.21;75.76;112049.66;5058861;28;20229;-73
2022/06/13 00:58:58;;;;;;;2.83;1.93;;;24.60;54.90;;;-142.21;78.74;112049.66;5073088;28;20193;-73
2022/06/13 01:01:32;;;;;;;3.70;1.90;;;24.50;55.80;;;-142.21;74.49;112049.66;5068583;28;20190;-73
2022/06/13 01:04:03;;;;;;;5.07;2.07;;;24.50;55.20;;;-142.21;78.43;112049.66;5066238;28;20255;-73
2022/06/13 01:06:37;;;;;;;5.10;1.90;;;24.50;55.70;;;-142.21;80.67;112049.66;5065242;28;20204;-73
2022/06/13 01:09:09;;;;;;;3.80;1.80;;;24.40;56.60;;;-142.21;81.39;112049.66;5068121;28;20626;-72
2022/06/13 01:11:42;;;;;;;3.63;1.87;;;24.40;56.60;;;-142.21;82.25;112049.66;5054773;28;20194;-73
2022/06/13 01:14:41;;;;;;;4.73;2.10;;;24.40;56.90;;;-142.21;83.02;112049.66;5062361;28;20200;-72
2022/06/13 01:17:32;;;;;;;5.47;1.80;;;24.30;58.00;;;-142.21;85.23;112049.66;5040183;28;20641;-72
2022/06/13 01:20:31;;;;;;;3.37;2.00;;;24.30;58.60;;;-142.21;87.43;112049.66;5055527;28;20204;-72
2022/06/13 01:23:43;;;;;;;2.37;1.57;;;24.30;59.20;;;-142.21;88.34;112049.66;5060021;28;20617;-72
2022/06/13 01:27:06;;;;;;;2.00;1.80;;;24.20;59.50;;;-142.21;88.55;112049.66;5060924;28;20196;-73
2022/06/13 01:30:09;;;;;;;3.83;1.90;;;24.20;59.90;;;-142.21;87.01;112049.66;5033372;28;20232;-71
2022/06/13 01:32:56;;;;;;;3.23;1.80;;;24.20;59.50;;;-142.21;87.55;112049.66;5070064;28;20559;-72
2022/06/13 01:35:56;;;;;;;4.10;1.70;;;24.10;59.40;;;-142.21;71.08;112049.66;5058713;28;20189;-73
2022/06/13 01:38:50;;;;;;;5.43;2.00;;;24.10;54.50;;;-142.21;67.51;112049.66;5051482;28;20194;-73
2022/06/13 01:41:29;;;;;;;2.53;1.47;;;24.00;53.40;;;-142.21;60.68;112049.66;5052807;28;20200;-73
2022/06/13 01:44:12;;;;;;;3.83;2.27;;;24.00;52.40;;;-142.21;58.03;112049.66;5055568;28;20197;-72
2022/06/13 01:46:46;;;;;;;3.67;2.00;;;24.00;51.20;;;-142.21;59.14;112049.66;5061209;28;20281;-72
2022/06/13 01:49:34;;;;;;;2.93;1.87;;;24.00;51.20;;;-142.21;59.37;112049.66;5051987;28;20196;-72
2022/06/13 01:52:08;;;;;;;3.87;1.90;;;24.00;51.10;;;-142.21;60.07;112049.66;5061349;28;20203;-72
2022/06/13 01:54:48;;;;;;;4.60;1.77;;;24.00;51.40;;;-142.21;56.96;112049.66;5068091;28;20207;-72
2022/06/13 01:57:28;;;;;;;4.93;2.00;;;24.10;50.70;;;-142.21;57.64;112049.66;5064140;28;20204;-72
2022/06/13 02:00:07;;;;;;;5.17;2.17;;;24.10;50.60;;;-142.21;53.54;112049.66;5054293;28;20625;-72
2022/06/13 02:02:46;;;;;;;3.60;1.73;;;24.10;49.90;;;-142.21;54.54;112049.66;5050189;28;20204;-72
2022/06/13 02:05:23;;;;;;;5.10;1.90;;;24.00;49.70;;;-142.21;54.15;112049.66;5075835;28;20203;-73
2022/06/13 02:07:58;;;;;;;3.07;1.70;;;24.00;49.80;;;-142.21;54.44;112049.66;5063870;28;20191;-73
2022/06/13 02:10:33;;;;;;;2.80;1.63;;;24.00;49.80;;;-142.21;52.99;112049.66;5070131;28;20228;-73
2022/06/13 02:13:08;;;;;;;3.10;1.73;;;24.00;49.30;;;-142.21;53.11;112049.66;5070692;28;20316;-73
2022/06/13 02:15:43;;;;;;;4.17;1.97;;;23.90;49.20;;;-142.21;53.47;112049.66;5068957;28;20215;-73
2022/06/13 02:18:19;;;;;;;4.53;1.80;;;23.90;49.30;;;-142.21;53.16;112049.66;5072483;28;20199;-72
2022/06/13 02:20:54;;;;;;;4.50;1.87;;;23.80;49.20;;;-142.21;51.59;112049.66;5068433;28;20214;-72
2022/06/13 02:23:29;;;;;;;2.37;1.80;;;23.80;48.80;;;-142.21;51.43;112049.66;5071031;28;20628;-73
2022/06/13 02:26:03;;;;;;;4.43;1.73;;;23.80;48.70;;;-142.21;51.47;112049.66;5062653;28;20194;-72
2022/06/13 02:28:39;;;;;;;2.00;1.33;;;23.70;48.60;;;-142.21;51.43;112049.66;5067153;28;20277;-71
2022/06/13 02:31:14;;;;;;;5.43;1.63;;;23.70;48.60;;;-142.21;51.47;112049.66;5074166;28;20213;-72
2022/06/13 02:33:48;;;;;;;2.73;1.70;;;23.60;48.50;;;-142.21;51.27;112049.66;5065261;28;20635;-73
2022/06/13 02:36:25;;;;;;;3.80;1.80;;;23.60;48.60;;;-142.21;51.24;112049.66;5061831;28;20196;-72
2022/06/13 02:38:59;;;;;;;3.47;2.07;;;23.60;48.50;;;-142.21;51.18;112049.66;5062052;28;20198;-73
2022/06/13 02:41:38;;;;;;;3.97;1.80;;;23.50;48.30;;;-142.21;50.95;112049.66;5057840;28;20207;-73
2022/06/13 02:44:13;;;;;;;4.37;1.73;;;23.50;48.40;;;-142.21;51.02;112049.66;5060007;28;20196;-73
2022/06/13 02:46:47;;;;;;;2.40;1.80;;;23.50;48.40;;;-142.21;51.05;112049.66;5061700;28;20196;-73
2022/06/13 02:49:22;;;;;;;3.90;1.80;;;23.40;49.00;;;-142.21;52.08;112049.66;5069876;28;20210;-73
2022/06/13 02:52:03;;;;;;;3.00;1.87;;;23.40;49.30;;;-142.21;52.92;112049.66;5055194;28;20207;-73
2022/06/13 02:54:44;;;;;;;3.97;1.80;;;23.30;48.80;;;-142.21;54.55;112049.66;5058577;28;20208;-73
2022/06/13 02:57:34;;;;;;;2.73;1.63;;;23.30;49.30;;;-142.21;55.02;112049.66;5066412;28;20198;-72
2022/06/13 03:00:19;;;;;;;5.67;1.90;;;23.20;49.50;;;-142.21;55.90;112049.66;5065890;28;20194;-72
2022/06/13 03:03:09;;;;;;;5.83;2.20;;;23.10;49.70;;;-142.21;58.42;112049.66;5052912;28;21750;-72
2022/06/13 03:05:53;;;;;;;3.17;1.80;;;23.00;50.30;;;-142.21;62.42;112049.66;5070976;28;20201;-72
2022/06/13 03:08:44;;;;;;;3.37;1.77;;;23.00;51.40;;;-142.21;64.72;112049.66;5056369;28;20194;-72
2022/06/13 03:11:34;;;;;;;2.47;1.90;;;22.90;51.60;;;-142.21;67.38;112049.66;5059861;28;20541;-72
2022/06/13 03:14:19;;;;;;;3.43;2.23;;;22.80;52.30;;;-142.21;68.09;112049.66;5035658;28;20198;-72
2022/06/13 03:16:56;;;;;;;4.23;2.20;;;22.70;52.70;;;-142.21;69.69;112049.66;5050518;28;20200;-73
2022/06/13 03:19:28;;;;;;;3.60;1.90;;;22.60;52.90;;;-142.21;69.32;112049.66;5060132;28;20201;-72
2022/06/13 03:22:05;;;;;;;2.73;1.73;;;22.50;52.90;;;-142.21;70.47;112049.66;5054823;28;20194;-72
2022/06/13 03:24:47;;;;;;;4.53;2.17;;;22.50;53.30;;;-142.21;71.88;112049.66;5063609;28;20204;-72
2022/06/13 03:27:42;;;;;;;5.40;2.53;;;22.40;53.90;;;-142.21;73.51;112049.66;5036641;28;20208;-72
2022/06/13 03:30:14;;;;;;;5.97;1.83;;;22.30;54.80;;;-142.21;74.07;112049.66;5057753;28;20209;-72
2022/06/13 03:33:39;;;;;;;4.63;2.20;;;22.20;54.30;;;-142.21;74.00;112049.66;5070371;28;20193;-73
2022/06/13 03:35:39;;;;;;;5.00;1.90;;;22.10;54.40;;;-142.21;72.87;112049.66;5062944;28;20228;-72
2022/06/13 03:38:14;;;;;;;5.33;2.40;;;22.00;54.20;;;-142.21;70.05;112049.66;5067532;28;20192;-72
2022/06/13 03:40:51;;;;;;;4.53;2.10;;;22.00;53.60;;;-142.21;69.06;112049.66;5069137;28;20185;-72
2022/06/13 03:43:25;;;;;;;2.57;1.90;;;22.00;53.40;;;-142.21;69.74;112049.66;5051446;28;20194;-72
2022/06/13 03:46:01;;;;;;;2.87;1.93;;;22.00;53.50;;;-142.21;67.53;112049.66;5064355;28;20190;-72
2022/06/13 03:48:39;;;;;;;3.73;1.83;;;22.00;53.00;;;-142.21;68.54;112049.66;5056108;28;20607;-72
2022/06/13 03:51:15;;;;;;;3.53;2.10;;;22.00;53.20;;;-142.21;70.06;112049.66;5063679;28;20213;-72
2022/06/13 03:53:48;;;;;;;6.10;2.10;;;22.00;53.50;;;-142.21;69.93;112049.66;5061265;28;20196;-72
2022/06/13 03:56:21;;;;;;;4.93;2.60;;;22.00;53.30;;;-142.21;67.28;112049.66;5054506;28;20186;-72
2022/06/13 03:58:56;;;;;;;4.80;2.13;;;21.90;52.70;;;-142.21;67.47;112049.66;5069945;28;20198;-72
2022/06/13 04:01:31;;;;;;;3.73;2.03;;;21.90;52.70;;;-142.21;67.76;112049.66;5059617;28;20188;-72
2022/06/13 04:04:01;;;;;;;3.73;1.77;;;21.90;52.80;;;-142.21;67.15;112049.66;5063810;28;20196;-72
2022/06/13 04:06:37;;;;;;;3.67;2.23;;;21.90;52.70;;;-142.21;66.74;112049.66;5062644;28;20208;-72
2022/06/13 04:09:09;;;;;;;3.90;1.83;;;21.80;52.60;;;-142.21;66.31;112049.66;5063610;28;20662;-72
2022/06/13 04:12:19;;;;;;;6.23;2.20;;;21.80;52.50;;;-142.21;66.79;112049.66;5058890;28;20212;-72
2022/06/13 04:15:34;;;;;;;5.53;2.27;;;21.80;52.80;;;-142.21;65.59;112049.66;5069917;28;20189;-72
2022/06/13 04:18:19;;;;;;;6.47;2.67;;;21.80;52.50;;;-142.21;65.36;112049.66;5061353;28;20194;-72
2022/06/13 04:20:59;;;;;;;4.30;1.67;;;21.90;52.50;;;-142.21;65.16;112049.66;5058298;28;20288;-72
2022/06/13 04:23:35;;;;;;;4.87;2.10;;;21.90;52.20;;;-142.21;67.86;112049.66;5062207;28;20634;-72
2022/06/13 04:26:12;;;;;;;6.90;2.37;;;21.90;53.20;;;-142.21;64.42;112049.66;5055865;28;20194;-72
2022/06/13 04:28:48;;;;;;;3.40;2.20;;;21.90;52.60;;;-142.21;65.10;112049.66;5063615;28;20534;-72
2022/06/13 04:31:18;;;;;;;6.30;2.67;;;21.90;52.40;;;-142.21;67.79;112049.66;5065869;28;20209;-72
2022/06/13 04:33:52;;;;;;;5.20;2.97;;;21.90;53.00;;;-142.21;69.48;112049.66;5065358;28;20208;-72
2022/06/13 04:36:24;;;;;;;5.20;2.40;;;21.90;53.60;;;-142.21;70.28;112049.66;5071729;28;20687;-72
2022/06/13 04:38:55;;;;;;;5.17;2.17;;;21.90;53.70;;;-142.21;67.32;112049.66;5068735;28;20288;-72
2022/06/13 04:41:27;;;;;;;4.87;2.30;;;22.00;53.00;;;-142.21;69.37;112049.66;5072618;28;20187;-72
2022/06/13 04:44:02;;;;;;;8.53;4.03;;;22.00;53.10;;;-142.21;71.76;112049.66;5067674;28;20238;-72
2022/06/13 04:46:32;;;;;;;7.00;2.80;;;22.00;53.80;;;-142.21;70.05;112049.66;5060088;28;20189;-72
2022/06/13 04:49:06;;;;;;;8.93;3.13;;;22.00;53.70;;;-142.21;73.73;112049.66;5067398;28;20197;-72
2022/06/13 04:51:44;;;;;;;8.00;3.40;;;22.00;54.30;;;-142.21;73.26;112049.66;5057714;28;20213;-72
2022/06/13 04:54:23;;;;;;;6.40;2.83;;;22.00;54.70;;;-142.21;70.73;112049.66;5070372;28;20203;-72
2022/06/13 04:56:53;;;;;;;5.53;2.60;;;22.00;53.50;;;-142.21;72.49;112049.66;5072228;28;20205;-72
2022/06/13 04:59:22;;;;;;;9.83;3.10;;;22.00;54.00;;;-142.21;76.80;112049.66;5067421;28;20210;-72
2022/06/13 05:01:51;;;;;;;5.07;2.20;;;22.10;55.30;;;-142.21;73.78;112049.66;5061903;28;20281;-73
2022/06/13 05:04:21;;;;;;;4.30;2.63;;;22.10;54.60;;;-142.21;75.79;112049.66;5070291;28;20200;-72
2022/06/13 05:06:51;;;;;;;3.20;1.93;;;22.10;55.10;;;-142.21;72.33;112049.66;5068535;28;20193;-72
2022/06/13 05:09:23;;;;;;;2.47;1.90;;;22.20;54.10;;;-142.21;76.40;112049.66;5056584;28;20194;-72
2022/06/13 05:12:04;;;;;;;5.13;2.27;;;22.20;54.80;;;-142.21;73.90;112049.66;5058303;28;20678;-72
2022/06/13 05:14:38;;;;;;;3.60;2.10;;;22.30;54.50;;;-142.21;73.24;112049.66;5062143;28;20225;-73
2022/06/13 05:17:36;;;;;;;6.27;2.37;;;22.30;54.40;;;-142.21;69.58;112049.66;5072280;28;20193;-72
2022/06/13 05:20:11;;;;;;;3.73;2.13;;;22.30;53.60;;;-142.21;69.06;112049.66;5049028;28;20195;-72
2022/06/13 05:23:02;;;;;;;4.80;2.13;;;22.40;53.30;;;-142.21;71.43;112049.66;5062168;28;20539;-72
2022/06/13 05:25:43;;;;;;;5.97;2.30;;;22.50;53.70;;;-142.21;70.89;112049.66;5058966;28;20193;-73
2022/06/13 05:28:12;;;;;;;2.53;2.27;;;22.50;53.90;;;-142.21;69.32;112049.66;5064411;28;20723;-73
2022/06/13 05:30:44;;;;;;;4.63;2.20;;;22.50;53.30;;;-142.21;67.78;112049.66;5066551;28;20221;-73
2022/06/13 05:33:14;;;;;;;3.30;2.23;;;22.60;53.10;;;-142.21;68.78;112049.66;5060971;28;20196;-73
2022/06/13 05:35:45;;;;;;;3.53;2.13;;;22.70;53.30;;;-142.21;66.46;112049.66;5066156;28;20284;-73
2022/06/13 05:38:17;;;;;;;4.97;2.23;;;22.70;52.70;;;-142.21;66.75;112049.66;5059014;28;20197;-73
2022/06/13 05:40:45;;;;;;;4.17;2.27;;;22.70;52.70;;;-142.21;65.86;112049.66;5059158;28;20301;-73
2022/06/13 05:43:14;;;;;;;5.23;2.40;;;22.80;52.50;;;-142.21;65.72;112049.66;5070878;28;20206;-73
2022/06/13 05:45:44;;;;;;;4.47;2.20;;;22.80;52.50;;;-142.21;63.84;112049.66;5060932;28;20284;-72
2022/06/13 05:48:16;;;;;;;4.23;2.53;;;22.90;52.10;;;-142.21;64.91;112049.66;5053404;28;20193;-73
2022/06/13 05:50:45;;;;;;;3.10;2.20;;;23.00;52.40;;;-142.21;63.67;112049.66;5055456;28;20182;-73
2022/06/13 05:53:15;;;;;;;3.30;2.40;;;23.10;52.10;;;-142.21;62.44;112049.66;5048975;28;20207;-73
2022/06/13 05:55:43;;;;;;;4.77;1.97;;;23.10;51.60;;;-142.21;61.69;112049.66;5067548;28;20193;-73
2022/06/13 05:58:12;;;;;;;2.60;2.00;;;23.10;51.60;;;-142.21;60.89;112049.66;5068028;28;20209;-73
2022/06/13 06:00:46;;;;;;;2.33;1.80;;;23.20;51.40;;;-142.21;62.78;112049.66;5053846;28;20569;-73
2022/06/13 06:03:13;;;;;;;2.87;2.00;;;23.20;51.70;;;-142.21;61.59;112049.66;5065496;28;20200;-73
2022/06/13 06:05:41;;;;;;;4.07;2.37;;;23.30;51.50;;;-142.21;59.39;112049.66;5056145;28;20197;-74
2022/06/13 06:08:17;;;;;;;5.10;2.37;;;23.30;50.90;;;-142.21;58.91;112049.66;5067617;28;20998;-73
2022/06/13 06:10:47;;;;;;;4.17;1.93;;;23.40;50.80;;;-142.21;57.18;112049.66;5056168;28;20188;-73
2022/06/13 06:13:15;;;;;;;4.70;2.27;;;23.40;50.30;;;-142.21;57.15;112049.66;5056670;28;20295;-73
2022/06/13 06:15:46;;;;;;;4.10;2.10;;;23.40;50.20;;;-142.21;56.09;112049.66;5069293;28;20197;-74
2022/06/13 06:18:14;;;;;;;3.17;2.10;;;23.50;49.90;;;-142.21;58.05;112049.66;5058051;28;20197;-73
2022/06/13 06:20:42;;;;;;;3.53;2.00;;;23.50;50.40;;;-142.21;58.18;112049.66;5061328;28;20197;-74
2022/06/13 06:23:10;;;;;;;4.43;1.90;;;23.60;50.30;;;-142.21;57.35;112049.66;5063612;28;20201;-74
2022/06/13 06:25:37;;;;;;;4.03;1.97;;;23.60;50.20;;;-142.21;58.03;112049.66;5055476;28;20698;-73
2022/06/13 06:28:06;;;;;;;3.43;1.80;;;23.60;50.30;;;-142.21;59.42;112049.66;5064088;28;20244;-73
2022/06/13 06:30:34;;;;;;;5.37;2.40;;;23.70;50.70;;;-142.21;59.69;112049.66;5059075;28;20222;-73
2022/06/13 06:33:03;;;;;;;8.57;2.67;;;23.70;50.70;;;-142.21;59.11;112049.66;5055357;28;20635;-74
2022/06/13 06:35:31;;;;;;;4.17;2.20;;;23.80;50.50;;;-142.21;58.25;112049.66;5062142;28;20674;-74
2022/06/13 06:37:59;;;;;;;6.03;2.00;;;23.80;50.40;;;-142.21;55.80;112049.66;5057076;28;20739;-74
2022/06/13 06:40:28;;;;;;;5.07;2.33;;;23.80;49.80;;;-142.21;54.21;112049.66;5061848;28;20201;-72
2022/06/13 06:42:57;;;;;;;3.60;1.90;;;23.80;49.40;;;-142.21;53.66;112049.66;5047559;28;20286;-74
2022/06/13 06:45:26;;;;;;;2.53;1.97;;;23.80;49.20;;;-142.21;53.82;112049.66;5054019;28;20218;-74
2022/06/13 06:47:55;;;;;;;3.67;2.03;;;23.80;49.00;;;-142.21;55.37;112049.66;5053301;28;20201;-73
2022/06/13 06:50:27;;;;;;;2.20;2.00;;;23.80;49.40;;;-142.21;54.65;112049.66;5057222;28;20194;-73
2022/06/13 06:52:55;;;;;;;2.97;1.93;;;23.80;49.40;;;-142.21;53.65;112049.66;5043819;28;20253;-73
2022/06/13 07:00:56;;;;;;;3.27;2.00;;;23.80;47.90;;;-142.21;50.85;112049.66;5051009;28;20298;-73
2022/06/13 07:03:23;;;;;;;6.93;2.27;;;23.90;48.00;;;-142.21;51.14;112049.66;5060876;28;20213;-73
2022/06/13 07:05:53;;;;;;;2.77;1.60;;;23.90;48.00;;;-142.21;48.81;112049.66;5054726;28;20305;-75
2022/06/13 07:08:20;;;;;;;4.60;2.17;;;24.00;47.50;;;-142.21;47.82;112049.66;5065674;28;20586;-72
2022/06/13 07:10:49;;;;;;;4.17;2.13;;;24.00;46.90;;;-142.21;48.94;112049.66;5063463;28;20200;-73
2022/06/13 07:13:19;;;;;;;3.10;1.80;;;24.10;47.40;;;-142.21;48.31;112049.66;5062357;28;20235;-74
2022/06/13 07:15:48;;;;;;;3.00;1.90;;;24.10;47.20;;;-142.21;47.71;112049.66;5058893;28;20197;-74
2022/06/13 07:18:15;;;;;;;3.27;1.63;;;24.10;47.10;;;-142.21;46.91;112049.66;5059250;28;20209;-74
2022/06/13 07:20:43;;;;;;;3.63;1.70;;;24.20;46.60;;;-142.21;46.83;112049.66;5061810;28;20648;-73
2022/06/13 07:23:12;;;;;;;4.07;2.40;;;24.20;46.50;;;-142.21;46.52;112049.66;5069808;28;20715;-72
2022/06/13 07:25:39;;;;;;;4.47;1.80;;;24.30;46.30;;;-142.21;45.74;112049.66;5058294;28;20238;-73
2022/06/13 07:28:06;;;;;;;4.70;2.10;;;24.30;46.10;;;-142.21;46.07;112049.66;5071072;28;20233;-74
2022/06/13 07:30:34;;;;;;;6.13;1.80;;;24.40;46.20;;;-142.21;46.25;112049.66;5065055;28;20204;-74
2022/06/13 07:33:04;;;;;;;3.03;1.70;;;24.40;46.30;;;-142.21;46.27;112049.66;5059883;28;20222;-74
2022/06/13 07:35:32;;;;;;;2.03;1.57;;;24.50;46.30;;;-142.21;46.59;112049.66;5067106;28;20201;-74
2022/06/13 07:38:17;;;;;;;2.80;1.73;;;24.60;46.40;;;-142.21;46.04;112049.66;5063757;28;20290;-74
2022/06/13 07:40:49;;;;;;;2.47;1.87;;;24.70;46.20;;;-142.21;45.95;112049.66;5062976;28;20197;-74
2022/06/13 07:43:28;;;;;;;3.37;1.77;;;24.80;46.10;;;-142.21;44.83;112049.66;5054795;28;20490;-74
2022/06/13 07:45:57;;;;;;;3.97;1.83;;;24.80;45.50;;;-142.21;44.14;112049.66;5053595;28;20638;-74
2022/06/13 07:48:24;;;;;;;2.93;2.00;;;24.90;45.10;;;-142.21;44.74;112049.66;5054496;28;20669;-73
2022/06/13 07:50:52;;;;;;;5.30;1.77;;;25.00;45.30;;;-142.21;44.70;112049.66;5062862;28;20201;-76
2022/06/13 07:53:20;;;;;;;3.17;2.00;;;25.00;45.30;;;-142.21;44.37;112049.66;5068620;28;20309;-75
2022/06/13 07:55:48;;;;;;;5.47;2.20;;;25.00;45.40;;;-142.21;44.80;112049.66;5064015;28;20202;-73
2022/06/13 07:58:19;;;;;;;3.60;1.70;;;25.20;45.20;;;-142.21;44.60;112049.66;5054065;28;20208;-75
2022/06/13 08:00:49;;;;;;;3.80;2.07;;;25.20;45.20;;;-142.21;45.50;112049.66;5045283;28;20218;-74
2022/06/13 08:03:20;;;;;;;5.33;2.37;;;25.20;45.50;;;-142.21;42.91;112049.66;5039923;28;20246;-74
2022/06/13 08:05:47;;;;;;;3.33;2.03;;;25.30;44.40;;;-142.21;43.92;112049.66;5052839;28;20190;-74
2022/06/13 08:08:16;;;;;;;3.40;2.07;;;25.40;45.10;;;-142.21;41.60;112049.66;5054640;28;20206;-73
2022/06/13 08:10:44;;;;;;;3.30;2.07;;;25.30;43.60;;;-142.21;42.45;112049.66;5062290;28;20308;-73
2022/06/13 08:13:15;;;;;;;3.07;1.93;;;25.30;43.90;;;-142.21;42.44;112049.66;5053343;28;20844;-73
2022/06/13 08:15:42;;;;;;;4.20;2.00;;;25.20;43.90;;;-142.21;43.76;112049.66;5056873;28;20276;-73
2022/06/13 08:18:12;;;;;;;3.93;1.90;;;25.20;44.70;;;-142.21;45.47;112049.66;5066410;28;20208;-73
2022/06/13 08:20:41;;;;;;;4.63;1.97;;;25.30;45.70;;;-142.21;45.93;112049.66;5052918;28;20194;-74
2022/06/13 08:23:11;;;;;;;3.90;1.90;;;25.40;45.90;;;-142.21;44.75;112049.66;5053914;28;20548;-74
2022/06/13 08:25:39;;;;;;;2.50;2.10;;;25.50;45.50;;;-142.21;44.76;112049.66;5053867;28;20225;-73
2022/06/13 08:28:08;;;;;;;2.93;1.90;;;25.60;45.20;;;-142.21;44.99;112049.66;5053722;28;20206;-73
2022/06/13 08:30:42;;;;;;;4.10;1.90;;;25.80;45.40;;;-142.21;42.65;112049.66;5056922;28;20710;-73
2022/06/13 08:33:09;;;;;;;5.97;2.33;;;25.90;44.20;;;-142.21;42.92;112049.66;5053192;28;20214;-74
2022/06/13 08:35:36;;;;;;;4.53;2.30;;;26.00;44.20;;;-142.21;43.95;112049.66;5053857;28;20238;-73
2022/06/13 08:38:04;;;;;;;3.47;1.97;;;26.10;44.40;;;-142.21;43.94;112049.66;5053006;28;20236;-74
2022/06/13 08:40:44;;;;;;;5.63;2.10;;;26.20;44.50;;;-142.21;44.53;112049.66;5068925;28;20194;-74
2022/06/13 08:43:37;;;;;;;3.80;1.83;;;26.30;44.90;;;-142.21;43.04;112049.66;5073455;28;20277;-74
2022/06/13 08:46:17;;;;;;;5.20;2.43;;;26.40;43.90;;;-142.21;43.04;112049.66;5042609;28;20598;-74
2022/06/13 08:48:45;;;;;;;3.23;1.80;;;26.50;44.00;;;-142.21;42.89;112049.66;5068830;28;20194;-74
2022/06/13 08:51:17;;;;;;;3.60;2.00;;;26.60;44.00;;;-142.21;41.67;112049.66;5063618;28;20296;-74
2022/06/13 08:53:56;;;;;;;4.57;2.50;;;26.60;43.10;;;-142.21;40.78;112049.66;5070346;28;20677;-74
2022/06/13 08:56:29;;;;;;;3.30;2.03;;;26.70;42.50;;;-142.21;40.23;112049.66;5052944;28;20191;-74
2022/06/13 08:59:22;;;;;;;2.40;1.80;;;26.60;42.80;;;-142.21;40.07;112049.66;5056161;28;20284;-74
2022/06/13 09:01:58;;;;;;;3.37;2.00;;;26.60;42.10;;;-142.21;41.56;112049.66;5056569;28;20244;-74
2022/06/13 09:04:34;;;;;;;4.07;2.33;;;26.50;42.60;;;-142.21;39.43;112049.66;5053567;28;20493;-74
2022/06/13 09:07:13;;;;;;;3.03;1.70;;;26.50;41.50;;;-142.21;39.51;112049.66;5062497;28;20439;-74
2022/06/13 09:09:50;;;;;;;2.73;2.10;;;26.40;41.50;;;-142.21;39.62;112049.66;5072813;28;20193;-74
2022/06/13 09:12:24;;;;;;;3.63;2.10;;;26.30;41.10;;;-142.21;39.58;112049.66;5064067;28;20740;-73
2022/06/13 09:15:01;;;;;;;2.87;2.10;;;26.50;41.90;;;-142.21;39.01;112049.66;5070620;28;20188;-73
2022/06/13 09:17:42;;;;;;;3.20;2.00;;;26.60;41.50;;;-142.21;40.18;112049.66;5059229;28;20580;-73
2022/06/13 09:20:18;;;;;;;4.43;2.20;;;26.60;42.20;;;-142.21;39.44;112049.66;5053411;28;20190;-75
2022/06/13 09:22:59;;;;;;;3.47;2.17;;;26.80;42.10;;;-142.21;40.80;112049.66;5056988;28;20633;-73
2022/06/13 09:25:41;;;;;;;2.93;2.17;;;27.00;42.80;;;-142.21;36.98;112049.66;5059346;28;20244;-74
2022/06/13 09:28:18;;;;;;;4.80;2.00;;;27.10;39.50;;;-142.21;37.25;112049.66;5070011;28;20197;-75
2022/06/13 09:30:50;;;;;;;5.03;2.17;;;26.90;39.70;;;-142.21;37.22;112049.66;5071901;28;20193;-74
2022/06/13 09:33:29;;;;;;;4.40;2.00;;;26.80;40.00;;;-142.21;36.97;112049.66;5064026;28;20219;-75
2022/06/13 09:36:12;;;;;;;5.03;1.70;;;26.40;39.50;;;-142.21;37.08;112049.66;5032071;28;20198;-74
2022/06/13 09:38:47;;;;;;;2.80;2.10;;;26.30;40.20;;;-142.21;37.92;112049.66;5032691;28;20277;-75
2022/06/13 09:41:59;;;;;;;3.30;2.17;;;26.60;41.20;;;-142.21;37.65;112049.66;5038347;28;20225;-74
2022/06/13 09:44:46;;;;;;;3.77;1.77;;;26.80;40.50;;;-142.21;36.44;112049.66;5043355;28;20189;-73
2022/06/13 09:47:27;;;;;;;3.00;1.80;;;27.00;39.50;;;-142.21;38.48;112049.66;5060365;28;20282;-75
2022/06/13 09:50:15;;;;;;;3.57;2.07;;;27.10;41.10;;;-142.21;36.08;112049.66;5070843;28;20284;-74
2022/06/13 09:52:54;;;;;;;3.03;1.87;;;27.00;38.80;;;-142.21;36.52;112049.66;5070450;28;20228;-75
2022/06/13 09:55:33;;;;;;;3.63;1.50;;;26.80;39.10;;;-142.21;36.99;112049.66;5072166;28;20197;-74
2022/06/13 09:58:16;;;;;;;2.27;2.00;;;26.60;39.80;;;-142.21;37.81;112049.66;5053633;28;20638;-75
2022/06/13 10:00:57;;;;;;;3.90;1.87;;;26.60;40.10;;;-142.21;37.35;112049.66;5053530;28;20190;-74
2022/06/13 10:03:39;;;;;;;2.43;2.17;;;26.60;40.20;;;-142.21;36.69;112049.66;5071612;28;20279;-73
2022/06/13 10:06:18;;;;;;;3.10;1.80;;;26.70;39.60;;;-142.21;36.17;112049.66;5070068;28;20218;-75
2022/06/13 10:09:15;;;;;;;1.83;1.40;;;26.80;40.00;;;-142.21;34.35;112049.66;5035845;28;20208;-74
2022/06/13 10:11:54;;;;;;;3.87;1.50;;;26.60;37.20;;;-142.21;33.96;112049.66;5070188;28;20201;-74
2022/06/13 10:14:45;;;;;;;2.07;1.50;;;26.80;38.00;;;-142.21;36.24;112049.66;5072050;28;20288;-74
2022/06/13 10:17:32;;;;;;;3.07;1.37;;;27.00;40.00;;;-142.21;32.27;112049.66;5057574;28;20221;-74
2022/06/13 10:20:10;;;;;;;1.30;0.90;;;27.10;36.00;;;-142.21;32.36;112049.66;5056516;28;20198;-75
2022/06/13 10:22:51;;;;;;;1.33;1.23;;;27.20;36.30;;;-142.21;32.71;112049.66;5070125;28;20196;-74
2022/06/13 10:25:45;;;;;;;3.30;1.50;;;27.20;35.90;;;-142.21;31.71;112049.66;5066486;28;20200;-74
2022/06/13 10:28:43;;;;;;;2.40;1.53;;;27.20;34.80;;;-142.21;33.47;112049.66;5072811;28;20198;-74
2022/06/13 10:31:28;;;;;;;1.83;1.50;;;27.20;35.80;;;-142.21;31.36;112049.66;5071791;28;20209;-75
2022/06/13 10:34:12;;;;;;;2.17;1.37;;;27.10;34.60;;;-142.21;31.25;112049.66;5068695;28;20244;-75
2022/06/13 10:36:54;;;;;;;2.20;1.53;;;27.10;34.30;;;-142.21;31.04;112049.66;5075653;28;20223;-74
2022/06/13 10:39:29;;;;;;;1.47;1.13;;;27.10;34.30;;;-142.21;33.43;112049.66;5075774;28;20276;-74
2022/06/13 10:42:07;;;;;;;1.90;1.80;;;27.30;36.20;;;-142.21;32.18;112049.66;5075235;28;20195;-75